createdAt,value
2017-12-06T00:00:11.048Z,2.70
2017-12-06T00:01:11.005Z,2.20
2017-12-06T00:02:10.983Z,2.60
2017-12-06T00:03:10.958Z,2.30
2017-12-06T00:04:10.934Z,2.30
2017-12-06T00:05:10.915Z,2.80
2017-12-06T00:06:10.894Z,2.40
2017-12-06T00:07:11.517Z,2.00
2017-12-06T00:08:10.871Z,2.30
2017-12-06T00:09:10.850Z,2.40
2017-12-06T00:10:10.810Z,2.40
2017-12-06T00:11:10.813Z,2.10
2017-12-06T00:12:10.787Z,2.60
2017-12-06T00:13:10.767Z,2.40
2017-12-06T00:14:10.748Z,2.40
2017-12-06T00:15:10.730Z,2.40
2017-12-06T00:16:10.702Z,2.50
2017-12-06T00:17:10.748Z,3.00
2017-12-06T00:18:10.679Z,2.80
2017-12-06T00:19:10.666Z,3.50
2017-12-06T00:20:10.631Z,2.20
2017-12-06T00:21:10.616Z,2.50
2017-12-06T00:22:10.601Z,2.60
2017-12-06T00:23:10.570Z,2.30
2017-12-06T00:24:10.591Z,2.50
2017-12-06T00:25:10.537Z,2.40
2017-12-06T00:26:10.526Z,2.30
2017-12-06T00:27:10.491Z,2.20
2017-12-06T00:28:10.473Z,2.90
2017-12-06T00:29:10.469Z,2.70
2017-12-06T00:30:10.456Z,2.30
2017-12-06T00:31:11.348Z,2.50
2017-12-06T00:32:10.400Z,2.00
2017-12-06T00:33:10.389Z,2.50
2017-12-06T00:34:10.362Z,2.50
2017-12-06T00:35:10.366Z,2.40
2017-12-06T00:36:10.335Z,2.70
2017-12-06T00:37:10.316Z,3.20
2017-12-06T00:38:10.308Z,2.50
2017-12-06T00:39:10.283Z,2.40
2017-12-06T00:40:10.248Z,2.50
2017-12-06T00:41:10.271Z,3.00
2017-12-06T00:42:10.216Z,2.60
2017-12-06T00:43:10.206Z,2.40
2017-12-06T00:44:10.184Z,2.50
2017-12-06T00:45:10.160Z,2.30
2017-12-06T00:46:10.160Z,2.60
2017-12-06T00:47:10.109Z,2.30
2017-12-06T00:48:10.104Z,2.90
2017-12-06T00:49:10.083Z,2.30
2017-12-06T00:50:10.069Z,2.40
2017-12-06T00:51:10.096Z,2.60
2017-12-06T00:52:10.023Z,2.30
2017-12-06T00:53:10.005Z,2.10
2017-12-06T00:54:09.980Z,1.80
2017-12-06T00:55:09.959Z,2.50
2017-12-06T00:56:09.952Z,2.30
2017-12-06T00:57:10.838Z,2.70
2017-12-06T00:58:09.925Z,2.40
2017-12-06T00:59:09.898Z,2.40
2017-12-06T01:00:09.875Z,2.00
2017-12-06T01:01:09.855Z,1.70
2017-12-06T01:02:09.834Z,1.90
2017-12-06T01:03:09.821Z,2.60
2017-12-06T01:04:09.793Z,2.20
2017-12-06T01:05:09.777Z,2.10
2017-12-06T01:06:09.767Z,2.40
2017-12-06T01:07:09.746Z,2.00
2017-12-06T01:08:09.729Z,1.80
2017-12-06T01:09:09.719Z,2.20
2017-12-06T01:10:09.697Z,2.40
2017-12-06T01:11:09.661Z,2.30
2017-12-06T01:12:09.647Z,2.00
2017-12-06T01:13:09.620Z,2.10
2017-12-06T01:14:09.611Z,2.40
2017-12-06T01:15:09.592Z,2.20
2017-12-06T01:16:09.552Z,2.40
2017-12-06T01:17:09.544Z,2.30
2017-12-06T01:18:09.547Z,2.80
2017-12-06T01:19:09.503Z,2.50
2017-12-06T01:20:09.514Z,2.20
2017-12-06T01:21:09.480Z,2.00
2017-12-06T01:22:09.473Z,2.50
2017-12-06T01:23:09.445Z,2.00
2017-12-06T01:24:09.410Z,2.30
2017-12-06T01:25:09.385Z,2.20
2017-12-06T01:26:09.400Z,2.50
2017-12-06T01:27:09.361Z,2.40
2017-12-06T01:28:09.348Z,2.60
2017-12-06T01:29:09.313Z,2.20
2017-12-06T01:30:09.295Z,2.10
2017-12-06T01:31:09.294Z,2.10
2017-12-06T01:32:09.276Z,2.00
2017-12-06T01:33:09.269Z,2.30
2017-12-06T01:34:09.249Z,2.40
2017-12-06T01:35:09.225Z,2.10
2017-12-06T01:36:09.191Z,2.70
2017-12-06T01:37:09.171Z,1.90
2017-12-06T01:38:09.149Z,2.20
2017-12-06T01:39:09.128Z,2.30
2017-12-06T01:40:09.125Z,2.30
2017-12-06T01:41:09.084Z,1.80
2017-12-06T01:42:09.095Z,2.00
2017-12-06T01:43:09.061Z,1.80
2017-12-06T01:44:09.047Z,2.50
2017-12-06T01:45:09.013Z,1.90
2017-12-06T01:46:09.027Z,1.90
2017-12-06T01:47:08.978Z,2.20
2017-12-06T01:48:08.955Z,2.10
2017-12-06T01:49:08.939Z,1.90
2017-12-06T01:50:08.914Z,2.10
2017-12-06T01:51:08.905Z,1.90
2017-12-06T01:52:08.904Z,2.20
2017-12-06T01:53:08.876Z,2.30
2017-12-06T01:54:08.830Z,2.00
2017-12-06T01:55:08.830Z,1.80
2017-12-06T01:56:08.798Z,2.30
2017-12-06T01:57:08.794Z,2.20
2017-12-06T01:58:08.773Z,1.90
2017-12-06T01:59:08.751Z,1.90
2017-12-06T02:00:08.725Z,2.50
2017-12-06T02:01:08.705Z,1.80
2017-12-06T02:02:08.682Z,1.70
2017-12-06T02:03:08.664Z,2.30
2017-12-06T02:04:08.664Z,2.10
2017-12-06T02:05:08.635Z,1.70
2017-12-06T02:06:08.641Z,2.20
2017-12-06T02:07:08.616Z,1.80
2017-12-06T02:08:08.562Z,2.40
2017-12-06T02:09:08.575Z,1.80
2017-12-06T02:10:08.533Z,1.80
2017-12-06T02:11:08.528Z,1.80
2017-12-06T02:12:08.492Z,2.10
2017-12-06T02:13:08.481Z,1.80
2017-12-06T02:14:08.462Z,2.10
2017-12-06T02:15:08.446Z,2.20
2017-12-06T02:16:08.420Z,2.30
2017-12-06T02:17:08.420Z,2.30
2017-12-06T02:18:08.382Z,2.20
2017-12-06T02:19:08.363Z,2.10
2017-12-06T02:20:08.380Z,2.20
2017-12-06T02:21:08.324Z,2.40
2017-12-06T02:22:08.308Z,2.10
2017-12-06T02:23:08.297Z,2.10
2017-12-06T02:24:08.247Z,1.90
2017-12-06T02:25:08.240Z,2.20
2017-12-06T02:26:08.220Z,2.00
2017-12-06T02:27:08.201Z,2.30
2017-12-06T02:28:08.181Z,2.30
2017-12-06T02:29:08.157Z,1.90
2017-12-06T02:30:08.140Z,2.30
2017-12-06T02:31:08.128Z,2.30
2017-12-06T02:32:08.099Z,2.10
2017-12-06T02:33:08.084Z,2.10
2017-12-06T02:34:08.073Z,1.80
2017-12-06T02:35:08.069Z,2.00
2017-12-06T02:36:08.033Z,2.20
2017-12-06T02:37:08.006Z,2.30
2017-12-06T02:38:07.996Z,2.00
2017-12-06T02:39:07.955Z,1.90
2017-12-06T02:40:07.949Z,1.50
2017-12-06T02:41:07.992Z,2.10
2017-12-06T02:42:07.933Z,2.10
2017-12-06T02:43:07.909Z,1.80
2017-12-06T02:44:07.876Z,2.20
2017-12-06T02:45:07.845Z,1.90
2017-12-06T02:46:07.860Z,2.00
2017-12-06T02:47:07.812Z,2.40
2017-12-06T02:48:07.804Z,1.90
2017-12-06T02:49:07.770Z,1.90
2017-12-06T02:50:07.826Z,1.80
2017-12-06T02:51:07.743Z,2.30
2017-12-06T02:52:07.783Z,2.10
2017-12-06T02:53:07.706Z,2.40
2017-12-06T02:54:07.677Z,2.10
2017-12-06T02:55:07.649Z,2.20
2017-12-06T02:56:07.647Z,2.30
2017-12-06T02:57:07.630Z,2.20
2017-12-06T02:58:07.594Z,2.30
2017-12-06T02:59:07.574Z,1.90
2017-12-06T03:00:07.562Z,2.50
2017-12-06T03:01:07.549Z,1.80
2017-12-06T03:02:07.571Z,2.30
2017-12-06T03:03:07.513Z,1.70
2017-12-06T03:04:07.490Z,2.30
2017-12-06T03:05:07.452Z,2.20
2017-12-06T03:06:07.452Z,2.60
2017-12-06T03:07:07.432Z,2.70
2017-12-06T03:08:07.410Z,2.80
2017-12-06T03:09:07.397Z,2.00
2017-12-06T03:10:07.369Z,2.10
2017-12-06T03:11:07.350Z,1.80
2017-12-06T03:12:07.317Z,1.90
2017-12-06T03:13:07.340Z,1.90
2017-12-06T03:14:07.277Z,2.50
2017-12-06T03:15:07.256Z,2.10
2017-12-06T03:16:07.263Z,1.90
2017-12-06T03:17:07.222Z,2.10
2017-12-06T03:18:07.212Z,2.00
2017-12-06T03:19:07.219Z,2.10
2017-12-06T03:20:07.157Z,2.60
2017-12-06T03:21:07.151Z,1.80
2017-12-06T03:22:07.142Z,1.90
2017-12-06T03:23:07.124Z,2.30
2017-12-06T03:24:07.102Z,2.40
2017-12-06T03:25:07.080Z,2.10
2017-12-06T03:26:07.070Z,2.50
2017-12-06T03:27:07.025Z,2.00
2017-12-06T03:28:07.032Z,2.50
2017-12-06T03:29:06.988Z,2.20
2017-12-06T03:30:06.982Z,2.00
2017-12-06T03:31:07.046Z,2.40
2017-12-06T03:32:06.957Z,2.90
2017-12-06T03:33:06.943Z,1.80
2017-12-06T03:34:06.885Z,1.90
2017-12-06T03:35:06.919Z,2.00
2017-12-06T03:36:06.866Z,2.20
2017-12-06T03:37:06.833Z,2.30
2017-12-06T03:38:06.819Z,1.60
2017-12-06T03:39:06.810Z,1.80
2017-12-06T03:40:06.784Z,1.90
2017-12-06T03:41:06.755Z,2.20
2017-12-06T03:42:06.755Z,2.30
2017-12-06T03:43:06.719Z,2.60
2017-12-06T03:44:06.718Z,2.60
2017-12-06T03:45:06.680Z,1.60
2017-12-06T03:46:06.698Z,1.70
2017-12-06T03:47:06.642Z,2.10
2017-12-06T03:48:06.623Z,3.00
2017-12-06T03:49:06.595Z,2.20
2017-12-06T03:50:14.936Z,2.20
2017-12-06T03:51:13.704Z,2.10
2017-12-06T03:52:59.537Z,1.70
2017-12-06T03:53:59.391Z,2.10
2017-12-06T03:55:52.237Z,1.80
2017-12-06T03:56:52.214Z,2.10
2017-12-06T03:58:46.044Z,1.80
2017-12-06T03:59:45.865Z,1.90
2017-12-06T04:00:45.856Z,2.60
2017-12-06T04:01:45.837Z,2.20
2017-12-06T04:02:45.833Z,2.20
2017-12-06T04:03:45.799Z,2.20
2017-12-06T04:04:45.778Z,2.00
2017-12-06T04:05:45.773Z,2.40
2017-12-06T04:06:45.748Z,2.00
2017-12-06T04:07:45.723Z,2.60
2017-12-06T04:08:45.703Z,1.80
2017-12-06T04:09:45.732Z,1.80
2017-12-06T04:10:45.663Z,2.10
2017-12-06T04:11:45.648Z,2.30
2017-12-06T04:12:45.625Z,1.90
2017-12-06T04:13:45.601Z,2.30
2017-12-06T04:14:45.591Z,2.00
2017-12-06T04:15:45.566Z,2.20
2017-12-06T04:16:45.547Z,2.50
2017-12-06T04:17:45.511Z,1.80
2017-12-06T04:18:45.497Z,2.30
2017-12-06T04:19:45.496Z,1.90
2017-12-06T04:20:45.465Z,2.20
2017-12-06T04:21:45.452Z,1.80
2017-12-06T04:22:45.417Z,2.20
2017-12-06T04:23:45.424Z,1.90
2017-12-06T04:24:45.389Z,2.10
2017-12-06T04:25:45.352Z,1.70
2017-12-06T04:26:45.333Z,2.10
2017-12-06T04:27:45.309Z,2.30
2017-12-06T04:28:45.313Z,2.00
2017-12-06T04:29:45.276Z,1.80
2017-12-06T04:30:45.261Z,2.20
2017-12-06T04:31:45.248Z,2.20
2017-12-06T04:32:45.210Z,1.90
2017-12-06T04:33:45.221Z,2.30
2017-12-06T04:34:45.203Z,2.50
2017-12-06T04:35:45.163Z,1.90
2017-12-06T04:36:45.166Z,2.50
2017-12-06T04:37:45.124Z,2.10
2017-12-06T04:38:45.102Z,1.90
2017-12-06T04:39:45.080Z,2.00
2017-12-06T04:40:45.060Z,2.00
2017-12-06T04:41:45.069Z,1.90
2017-12-06T04:42:45.021Z,2.40
2017-12-06T04:43:45.013Z,2.50
2017-12-06T04:44:44.995Z,2.10
2017-12-06T04:45:44.958Z,2.20
2017-12-06T04:46:44.943Z,2.60
2017-12-06T04:47:44.925Z,2.80
2017-12-06T04:48:44.920Z,2.30
2017-12-06T04:49:44.891Z,2.40
2017-12-06T04:50:44.877Z,2.30
2017-12-06T04:51:44.861Z,2.20
2017-12-06T04:52:44.827Z,2.50
2017-12-06T04:53:44.820Z,2.60
2017-12-06T04:54:44.810Z,2.30
2017-12-06T04:55:44.761Z,2.30
2017-12-06T04:56:44.771Z,2.80
2017-12-06T04:57:44.731Z,2.60
2017-12-06T04:58:44.764Z,3.30
2017-12-06T04:59:44.741Z,3.00
2017-12-06T05:00:44.683Z,2.70
2017-12-06T05:01:44.663Z,2.60
2017-12-06T05:02:44.639Z,2.80
2017-12-06T05:03:44.632Z,2.60
2017-12-06T05:04:44.593Z,2.90
2017-12-06T05:05:44.614Z,3.30
2017-12-06T05:06:44.564Z,2.50
2017-12-06T05:07:44.535Z,3.00
2017-12-06T05:08:44.535Z,2.60
2017-12-06T05:09:44.505Z,3.00
2017-12-06T05:10:44.471Z,3.50
2017-12-06T05:11:44.460Z,3.20
2017-12-06T05:12:44.438Z,3.40
2017-12-06T05:13:44.428Z,3.00
2017-12-06T05:14:44.476Z,3.40
2017-12-06T05:15:44.393Z,3.20
2017-12-06T05:16:44.429Z,2.90
2017-12-06T05:17:44.363Z,3.30
2017-12-06T05:18:44.321Z,3.30
2017-12-06T05:19:44.309Z,3.10
2017-12-06T05:20:44.297Z,3.30
2017-12-06T05:21:44.255Z,3.00
2017-12-06T05:22:44.245Z,3.20
2017-12-06T05:23:44.231Z,3.20
2017-12-06T05:24:44.188Z,4.20
2017-12-06T05:25:44.191Z,2.80
2017-12-06T05:26:44.164Z,3.50
2017-12-06T05:27:44.139Z,3.20
2017-12-06T05:28:44.113Z,3.30
2017-12-06T05:29:44.119Z,3.40
2017-12-06T05:30:44.086Z,3.70
2017-12-06T05:31:44.062Z,3.70
2017-12-06T05:32:44.054Z,3.60
2017-12-06T05:33:44.031Z,3.10
2017-12-06T05:34:43.997Z,3.30
2017-12-06T05:35:43.988Z,3.60
2017-12-06T05:36:43.975Z,4.20
2017-12-06T05:37:43.954Z,3.30
2017-12-06T05:38:43.923Z,3.10
2017-12-06T05:39:43.901Z,3.30
2017-12-06T05:40:43.884Z,3.80
2017-12-06T05:41:43.869Z,4.20
2017-12-06T05:42:43.847Z,3.50
2017-12-06T05:43:43.837Z,3.20
2017-12-06T05:44:43.823Z,3.70
2017-12-06T05:45:43.784Z,3.60
2017-12-06T05:46:43.780Z,3.10
2017-12-06T05:47:43.760Z,4.00
2017-12-06T05:48:43.741Z,3.80
2017-12-06T05:49:43.710Z,3.90
2017-12-06T05:50:43.686Z,3.60
2017-12-06T05:51:43.680Z,3.50
2017-12-06T05:52:43.661Z,3.30
2017-12-06T05:53:43.631Z,3.40
2017-12-06T05:54:43.614Z,3.00
2017-12-06T05:55:43.613Z,3.60
2017-12-06T05:56:43.577Z,4.10
2017-12-06T05:57:43.561Z,4.40
2017-12-06T05:58:43.540Z,3.90
2017-12-06T05:59:43.525Z,3.90
2017-12-06T06:00:43.500Z,3.80
2017-12-06T06:01:43.494Z,4.00
2017-12-06T06:02:43.456Z,3.40
2017-12-06T06:03:43.440Z,3.80
2017-12-06T06:04:43.408Z,3.80
2017-12-06T06:05:43.402Z,3.20
2017-12-06T06:06:43.385Z,3.50
2017-12-06T06:07:43.361Z,3.70
2017-12-06T06:08:43.347Z,3.80
2017-12-06T06:09:43.327Z,3.70
2017-12-06T06:10:43.303Z,3.80
2017-12-06T06:11:43.294Z,3.60
2017-12-06T06:12:43.272Z,3.60
2017-12-06T06:13:43.235Z,3.60
2017-12-06T06:14:43.216Z,3.50
2017-12-06T06:15:43.211Z,4.30
2017-12-06T06:16:43.174Z,3.50
2017-12-06T06:17:43.170Z,3.20
2017-12-06T06:18:43.155Z,3.80
2017-12-06T06:19:43.118Z,4.20
2017-12-06T06:20:43.111Z,3.30
2017-12-06T06:21:43.087Z,4.20
2017-12-06T06:22:43.060Z,3.90
2017-12-06T06:23:43.036Z,4.10
2017-12-06T06:24:43.030Z,3.90
2017-12-06T06:25:43.003Z,3.70
2017-12-06T06:26:42.985Z,3.50
2017-12-06T06:27:42.970Z,3.70
2017-12-06T06:28:42.951Z,3.80
2017-12-06T06:29:42.917Z,3.90
2017-12-06T06:30:42.901Z,4.00
2017-12-06T06:31:42.889Z,3.70
2017-12-06T06:32:42.877Z,3.50
2017-12-06T06:33:42.866Z,3.70
2017-12-06T06:34:42.833Z,3.70
2017-12-06T06:35:42.799Z,3.20
2017-12-06T06:36:42.801Z,3.90
2017-12-06T06:37:42.778Z,3.10
2017-12-06T06:38:42.761Z,3.50
2017-12-06T06:39:42.732Z,2.60
2017-12-06T06:40:42.697Z,4.10
2017-12-06T06:41:42.692Z,2.90
2017-12-06T06:42:42.671Z,3.60
2017-12-06T06:43:42.652Z,3.60
2017-12-06T06:44:42.637Z,3.30
2017-12-06T06:45:42.614Z,3.30
2017-12-06T06:46:42.598Z,3.00
2017-12-06T06:47:42.563Z,3.70
2017-12-06T06:48:42.545Z,3.60
2017-12-06T06:49:42.549Z,3.00
2017-12-06T06:50:42.505Z,3.40
2017-12-06T06:51:42.490Z,2.90
2017-12-06T06:52:42.483Z,3.60
2017-12-06T06:53:42.465Z,3.10
2017-12-06T06:54:42.433Z,3.30
2017-12-06T06:55:42.406Z,3.40
2017-12-06T06:56:42.391Z,3.10
2017-12-06T06:57:42.407Z,3.20
2017-12-06T06:58:42.368Z,3.60
2017-12-06T06:59:42.339Z,3.30
2017-12-06T07:00:42.326Z,3.30
2017-12-06T07:01:42.303Z,3.20
2017-12-06T07:02:42.275Z,3.30
2017-12-06T07:03:42.256Z,2.60
2017-12-06T07:04:42.246Z,3.50
2017-12-06T07:05:42.220Z,2.70
2017-12-06T07:06:42.208Z,3.10
2017-12-06T07:07:42.187Z,3.00
2017-12-06T07:08:42.160Z,3.00
2017-12-06T07:09:42.149Z,2.80
2017-12-06T07:10:42.119Z,3.30
2017-12-06T07:11:42.109Z,3.10
2017-12-06T07:12:42.074Z,3.00
2017-12-06T07:13:42.052Z,3.00
2017-12-06T07:14:42.028Z,3.00
2017-12-06T07:15:42.024Z,3.10
2017-12-06T07:16:41.989Z,3.20
2017-12-06T07:17:41.990Z,3.00
2017-12-06T07:18:41.947Z,3.40
2017-12-06T07:19:41.924Z,2.80
2017-12-06T07:20:41.922Z,2.90
2017-12-06T07:21:41.910Z,3.30
2017-12-06T07:22:41.884Z,3.00
2017-12-06T07:23:41.868Z,3.10
2017-12-06T07:24:41.857Z,2.90
2017-12-06T07:25:41.828Z,2.50
2017-12-06T07:26:41.805Z,3.00
2017-12-06T07:27:41.778Z,3.10
2017-12-06T07:28:41.770Z,3.10
2017-12-06T07:29:41.733Z,2.60
2017-12-06T07:30:41.715Z,3.00
2017-12-06T07:31:41.715Z,3.10
2017-12-06T07:32:41.686Z,2.40
2017-12-06T07:33:41.675Z,2.70
2017-12-06T07:34:41.677Z,2.50
2017-12-06T07:35:41.620Z,2.20
2017-12-06T07:36:41.612Z,2.50
2017-12-06T07:37:41.595Z,2.70
2017-12-06T07:38:41.564Z,2.50
2017-12-06T07:39:41.546Z,2.30
2017-12-06T07:40:41.521Z,2.80
2017-12-06T07:41:41.503Z,2.70
2017-12-06T07:42:41.517Z,2.40
2017-12-06T07:43:41.476Z,2.40
2017-12-06T07:44:41.446Z,2.40
2017-12-06T07:45:41.415Z,2.50
2017-12-06T07:46:41.415Z,2.40
2017-12-06T07:47:41.394Z,2.90
2017-12-06T07:48:41.377Z,2.70
2017-12-06T07:49:41.357Z,2.20
2017-12-06T07:50:41.318Z,2.40
2017-12-06T07:51:41.313Z,2.60
2017-12-06T07:52:41.271Z,2.80
2017-12-06T07:53:41.262Z,2.70
2017-12-06T07:54:41.255Z,2.30
2017-12-06T07:55:41.223Z,2.60
2017-12-06T07:56:41.191Z,2.50
2017-12-06T07:57:41.199Z,2.70
2017-12-06T07:58:41.169Z,3.00
2017-12-06T07:59:41.159Z,2.20
2017-12-06T08:00:41.116Z,2.50
2017-12-06T08:01:41.109Z,2.70
2017-12-06T08:02:41.096Z,2.60
2017-12-06T08:03:41.076Z,2.60
2017-12-06T08:04:41.057Z,2.20
2017-12-06T08:05:41.027Z,2.20
2017-12-06T08:06:41.011Z,2.70
2017-12-06T08:07:40.976Z,2.60
2017-12-06T08:08:40.953Z,2.10
2017-12-06T08:09:40.958Z,2.20
2017-12-06T08:10:40.933Z,2.40
2017-12-06T08:11:40.910Z,2.30
2017-12-06T08:12:40.886Z,2.60
2017-12-06T08:13:40.882Z,2.40
2017-12-06T08:14:40.846Z,2.10
2017-12-06T08:15:40.833Z,2.30
2017-12-06T08:16:40.804Z,2.70
2017-12-06T08:17:40.798Z,2.00
2017-12-06T08:18:40.775Z,2.40
2017-12-06T08:19:40.739Z,2.40
2017-12-06T08:20:40.737Z,2.50
2017-12-06T08:21:40.723Z,2.40
2017-12-06T08:22:40.701Z,2.20
2017-12-06T08:23:40.673Z,2.50
2017-12-06T08:24:40.642Z,2.40
2017-12-06T08:25:40.626Z,2.50
2017-12-06T08:26:40.619Z,2.30
2017-12-06T08:27:40.582Z,2.10
2017-12-06T08:28:40.574Z,2.40
2017-12-06T08:29:40.534Z,2.10
2017-12-06T08:30:40.546Z,2.50
2017-12-06T08:31:40.502Z,2.60
2017-12-06T08:32:40.511Z,2.40
2017-12-06T08:33:40.483Z,2.50
2017-12-06T08:34:40.457Z,2.30
2017-12-06T08:35:40.443Z,2.20
2017-12-06T08:36:40.406Z,2.20
2017-12-06T08:37:40.400Z,2.20
2017-12-06T08:38:40.376Z,2.20
2017-12-06T08:39:40.366Z,2.20
2017-12-06T08:40:40.319Z,2.00
2017-12-06T08:41:40.295Z,2.40
2017-12-06T08:42:40.287Z,2.50
2017-12-06T08:43:40.266Z,2.20
2017-12-06T08:44:40.258Z,2.10
2017-12-06T08:45:40.228Z,2.00
2017-12-06T08:46:40.218Z,2.10
2017-12-06T08:47:40.203Z,2.00
2017-12-06T08:48:40.170Z,2.10
2017-12-06T08:49:40.157Z,1.80
2017-12-06T08:50:40.122Z,1.60
2017-12-06T08:51:40.123Z,1.90
2017-12-06T08:52:40.098Z,2.30
2017-12-06T08:53:40.071Z,2.30
2017-12-06T08:54:40.050Z,1.60
2017-12-06T08:55:40.026Z,1.90
2017-12-06T08:56:40.026Z,1.80
2017-12-06T08:57:40.001Z,2.00
2017-12-06T08:58:39.970Z,1.60
2017-12-06T08:59:39.949Z,2.00
2017-12-06T09:00:39.937Z,2.20
2017-12-06T09:01:39.926Z,2.10
2017-12-06T09:02:39.884Z,1.90
2017-12-06T09:03:39.868Z,1.90
2017-12-06T09:04:39.861Z,2.00
2017-12-06T09:05:39.850Z,1.80
2017-12-06T09:06:39.829Z,1.90
2017-12-06T09:07:39.795Z,1.60
2017-12-06T09:08:39.786Z,1.80
2017-12-06T09:09:39.751Z,2.10
2017-12-06T09:10:39.730Z,1.90
2017-12-06T09:11:39.712Z,2.00
2017-12-06T09:12:39.690Z,2.00
2017-12-06T09:13:39.670Z,1.80
2017-12-06T09:14:39.664Z,2.30
2017-12-06T09:15:39.646Z,1.80
2017-12-06T09:16:39.608Z,2.00
2017-12-06T09:17:39.593Z,2.10
2017-12-06T09:18:39.587Z,2.20
2017-12-06T09:19:39.566Z,1.70
2017-12-06T09:20:39.545Z,1.90
2017-12-06T09:21:39.520Z,1.80
2017-12-06T09:22:39.486Z,1.60
2017-12-06T09:23:39.469Z,1.90
2017-12-06T09:24:39.472Z,1.80
2017-12-06T09:25:39.443Z,2.10
2017-12-06T09:26:39.412Z,1.60
2017-12-06T09:27:39.393Z,1.90
2017-12-06T09:28:39.365Z,1.90
2017-12-06T09:29:39.368Z,2.00
2017-12-06T09:30:39.329Z,2.00
2017-12-06T09:31:39.320Z,1.70
2017-12-06T09:32:39.289Z,2.00
2017-12-06T09:33:39.272Z,2.20
2017-12-06T09:34:39.264Z,1.70
2017-12-06T09:35:39.240Z,1.30
2017-12-06T09:36:39.222Z,1.70
2017-12-06T09:37:39.198Z,1.60
2017-12-06T09:38:39.163Z,1.80
2017-12-06T09:39:39.140Z,2.10
2017-12-06T09:40:39.147Z,2.70
2017-12-06T09:41:39.119Z,2.10
2017-12-06T09:42:39.104Z,1.70
2017-12-06T09:43:39.070Z,1.80
2017-12-06T09:44:39.047Z,1.70
2017-12-06T09:45:39.031Z,1.80
2017-12-06T09:46:39.000Z,1.80
2017-12-06T09:47:39.056Z,2.00
2017-12-06T09:48:38.973Z,2.00
2017-12-06T09:49:38.966Z,1.80
2017-12-06T09:50:38.953Z,1.90
2017-12-06T09:51:38.926Z,1.70
2017-12-06T09:52:38.894Z,1.90
2017-12-06T09:53:38.871Z,1.60
2017-12-06T09:54:38.868Z,1.80
2017-12-06T09:55:38.843Z,1.50
2017-12-06T09:56:38.806Z,1.90
2017-12-06T09:57:38.800Z,1.40
2017-12-06T09:58:38.826Z,1.50
2017-12-06T09:59:38.749Z,2.00
2017-12-06T10:00:38.736Z,1.90
2017-12-06T10:01:38.726Z,1.80
2017-12-06T10:02:38.692Z,1.60
2017-12-06T10:03:38.668Z,1.60
2017-12-06T10:04:38.639Z,1.90
2017-12-06T10:05:38.636Z,1.90
2017-12-06T10:06:38.609Z,1.70
2017-12-06T10:07:38.609Z,1.80
2017-12-06T10:08:38.566Z,2.00
2017-12-06T10:09:38.558Z,2.00
2017-12-06T10:10:38.546Z,1.40
2017-12-06T10:11:38.511Z,1.50
2017-12-06T10:12:38.493Z,2.10
2017-12-06T10:13:38.475Z,2.10
2017-12-06T10:14:38.460Z,1.60
2017-12-06T10:15:38.446Z,1.50
2017-12-06T10:16:38.400Z,1.50
2017-12-06T10:17:38.397Z,1.90
2017-12-06T10:18:38.379Z,1.70
2017-12-06T10:19:38.351Z,1.80
2017-12-06T10:20:38.337Z,1.50
2017-12-06T10:21:38.306Z,1.40
2017-12-06T10:22:38.302Z,1.80
2017-12-06T10:23:38.268Z,2.00
2017-12-06T10:24:38.268Z,1.70
2017-12-06T10:25:38.238Z,1.50
2017-12-06T10:26:38.205Z,1.40
2017-12-06T10:27:38.196Z,1.90
2017-12-06T10:28:38.168Z,1.90
2017-12-06T10:29:38.150Z,1.80
2017-12-06T10:30:38.169Z,1.60
2017-12-06T10:31:38.136Z,2.00
2017-12-06T10:32:38.103Z,2.00
2017-12-06T10:33:38.083Z,1.80
2017-12-06T10:34:38.055Z,1.40
2017-12-06T10:35:38.022Z,1.60
2017-12-06T10:36:38.023Z,1.70
2017-12-06T10:37:38.008Z,1.90
2017-12-06T10:38:37.987Z,1.70
2017-12-06T10:39:37.950Z,1.80
2017-12-06T10:40:37.941Z,1.60
2017-12-06T10:41:37.919Z,2.00
2017-12-06T10:42:38.011Z,1.70
2017-12-06T10:43:37.878Z,1.80
2017-12-06T10:44:37.854Z,2.00
2017-12-06T10:45:37.875Z,1.80
2017-12-06T10:46:37.895Z,1.40
2017-12-06T10:47:37.935Z,1.40
2017-12-06T10:48:37.859Z,1.90
2017-12-06T10:49:37.756Z,1.60
2017-12-06T10:50:37.736Z,1.50
2017-12-06T10:51:37.718Z,1.90
2017-12-06T10:52:37.694Z,1.70
2017-12-06T10:53:37.674Z,1.60
2017-12-06T10:54:37.651Z,1.60
2017-12-06T10:55:37.630Z,1.80
2017-12-06T10:56:37.634Z,1.30
2017-12-06T10:57:37.589Z,1.70
2017-12-06T10:58:37.578Z,1.40
2017-12-06T10:59:37.563Z,1.90
2017-12-06T11:00:37.541Z,1.50
2017-12-06T11:01:37.506Z,1.70
2017-12-06T11:02:37.496Z,1.60
2017-12-06T11:03:37.497Z,1.60
2017-12-06T11:04:37.541Z,1.30
2017-12-06T11:05:37.439Z,1.70
2017-12-06T11:06:37.388Z,1.70
2017-12-06T11:07:37.382Z,1.80
2017-12-06T11:08:37.366Z,1.70
2017-12-06T11:09:37.362Z,1.50
2017-12-06T11:10:37.319Z,1.40
2017-12-06T11:11:37.409Z,2.00
2017-12-06T11:12:37.292Z,2.00
2017-12-06T11:13:37.279Z,1.60
2017-12-06T11:14:37.267Z,1.90
2017-12-06T11:15:37.368Z,2.20
2017-12-06T11:16:37.211Z,2.00
2017-12-06T11:17:37.192Z,2.00
2017-12-06T11:18:37.178Z,2.10
2017-12-06T11:19:37.237Z,1.60
2017-12-06T11:20:37.142Z,2.00
2017-12-06T11:21:37.114Z,1.90
2017-12-06T11:22:37.098Z,2.10
2017-12-06T11:23:37.070Z,1.70
2017-12-06T11:24:37.159Z,1.40
2017-12-06T11:25:37.042Z,1.90
2017-12-06T11:26:37.084Z,1.80
2017-12-06T11:27:37.066Z,1.80
2017-12-06T11:28:37.009Z,2.20
2017-12-06T11:29:37.062Z,1.90
2017-12-06T11:30:37.054Z,1.70
2017-12-06T11:31:36.965Z,1.40
2017-12-06T11:32:36.994Z,1.70
2017-12-06T11:33:36.967Z,1.60
2017-12-06T11:34:36.872Z,1.70
2017-12-06T11:35:36.855Z,1.60
2017-12-06T11:36:36.835Z,2.00
2017-12-06T11:37:36.839Z,1.50
2017-12-06T11:38:36.949Z,1.70
2017-12-06T11:39:36.763Z,1.60
2017-12-06T11:40:36.736Z,1.70
2017-12-06T11:41:36.713Z,1.80
2017-12-06T11:42:36.696Z,1.80
2017-12-06T11:43:36.695Z,2.00
2017-12-06T11:44:36.662Z,1.90
2017-12-06T11:45:36.624Z,2.00
2017-12-06T11:46:36.630Z,1.90
2017-12-06T11:47:36.588Z,1.70
2017-12-06T11:48:36.607Z,1.60
2017-12-06T11:49:36.564Z,1.70
2017-12-06T11:50:36.541Z,2.70
2017-12-06T11:51:36.546Z,2.10
2017-12-06T11:52:36.523Z,2.00
2017-12-06T11:53:36.477Z,2.40
2017-12-06T11:54:36.450Z,2.30
2017-12-06T11:55:36.501Z,1.90
2017-12-06T11:56:36.417Z,1.90
2017-12-06T11:57:36.388Z,2.00
2017-12-06T11:58:36.383Z,2.10
2017-12-06T11:59:36.487Z,2.00
2017-12-06T12:00:36.343Z,2.10
2017-12-06T12:01:36.350Z,2.20
2017-12-06T12:02:37.559Z,2.10
2017-12-06T12:03:37.477Z,2.50
2017-12-06T12:04:38.108Z,1.50
2017-12-06T12:05:36.340Z,2.20
2017-12-06T12:06:37.166Z,2.00
2017-12-06T12:07:36.269Z,2.00
2017-12-06T12:08:36.308Z,2.30
2017-12-06T12:09:36.454Z,1.90
2017-12-06T12:10:37.118Z,2.20
2017-12-06T12:11:37.103Z,3.00
2017-12-06T12:12:37.102Z,2.40
2017-12-06T12:13:37.586Z,2.10
2017-12-06T12:14:36.112Z,1.70
2017-12-06T12:15:36.052Z,2.00
2017-12-06T12:16:36.020Z,2.00
2017-12-06T12:17:36.001Z,2.10
2017-12-06T12:18:35.984Z,2.10
2017-12-06T12:19:36.021Z,2.40
2017-12-06T12:20:36.003Z,1.90
2017-12-06T12:21:35.911Z,1.80
2017-12-06T12:22:37.888Z,2.30
2017-12-06T12:23:36.894Z,1.80
2017-12-06T12:24:35.892Z,2.30
2017-12-06T12:25:35.948Z,2.00
2017-12-06T12:26:35.847Z,2.10
2017-12-06T12:27:35.807Z,2.10
2017-12-06T12:28:35.818Z,1.80
2017-12-06T12:29:35.985Z,1.90
2017-12-06T12:30:35.761Z,1.80
2017-12-06T12:31:35.769Z,2.40
2017-12-06T12:32:35.718Z,2.20
2017-12-06T12:33:35.726Z,1.90
2017-12-06T12:34:35.692Z,2.50
2017-12-06T12:35:35.739Z,2.40
2017-12-06T12:36:35.648Z,1.90
2017-12-06T12:37:35.616Z,2.20
2017-12-06T12:38:35.600Z,2.10
2017-12-06T12:39:35.997Z,1.70
2017-12-06T12:40:36.357Z,1.90
2017-12-06T12:41:35.752Z,2.10
2017-12-06T12:42:36.067Z,1.70
2017-12-06T12:43:35.496Z,2.00
2017-12-06T12:44:35.523Z,1.90
2017-12-06T12:45:35.482Z,1.70
2017-12-06T12:46:35.428Z,1.80
2017-12-06T12:47:35.413Z,2.00
2017-12-06T12:48:35.394Z,1.70
2017-12-06T12:49:35.477Z,1.90
2017-12-06T12:50:35.340Z,1.80
2017-12-06T12:51:35.334Z,1.90
2017-12-06T12:52:35.852Z,1.80
2017-12-06T12:53:35.291Z,1.60
2017-12-06T12:56:07.072Z,2.10
2017-12-06T12:57:06.887Z,1.70
2017-12-06T12:58:59.716Z,1.80
2017-12-06T12:59:59.677Z,2.00
2017-12-06T13:01:53.310Z,1.80
2017-12-06T13:02:53.020Z,1.70
2017-12-06T13:03:53.857Z,1.60
2017-12-06T13:06:37.914Z,1.60
